.
WxDataArchive / Data Records for 2010-09-07
2010-09-06 September 2010 2010-09-08

Data Records for Tuesday, 07 September 2010

Time	Temp	Chill	HIndex	Humid	Dewpt	 Wind 	HiWind	WindDir	Rain 	Barom 
-----	----	-----	------	-----	-----	------	------	-------	-----	----- 
00:00	73.0	73.0	73.0	42	48.5	0	1	0	0.00	29.948 
00:05	72.7	72.7	72.7	43	48.9	0	0	---	0.00	29.948 
00:10	72.3	72.3	72.3	43	48.5	0	0	---	0.00	29.948 
00:15	71.8	71.8	71.8	43	48.1	0	1	0	0.00	29.947 
00:20	71.5	71.5	71.5	44	48.4	0	1	0	0.00	29.947 
00:25	71.1	71.1	71.1	45	48.7	0	0	---	0.00	29.947 
00:30	70.9	70.9	70.9	45	48.5	0	1	0	0.00	29.942 
00:35	70.8	70.8	70.8	45	48.4	0	1	0	0.00	29.942 
00:40	70.8	70.8	70.8	46	49.0	0	1	0	0.00	29.942 
00:45	70.8	70.8	70.8	46	49.0	0	1	0	0.00	29.934 
00:50	70.6	70.6	70.6	45	48.2	0	3	0	0.00	29.934 
00:55	70.8	70.8	70.8	45	48.4	0	2	22	0.00	29.934 
01:00	70.8	70.8	70.8	45	48.4	0	3	225	0.00	29.933 
01:05	70.9	70.9	70.9	45	48.5	0	3	202	0.00	29.933 
01:10	70.9	70.9	70.9	45	48.5	1	3	315	0.00	29.933 
01:15	71.1	71.1	71.1	45	48.7	0	2	270	0.00	29.932 
01:20	71.3	71.3	71.3	45	48.8	0	3	338	0.00	29.932 
01:25	71.1	71.1	71.1	45	48.7	0	2	315	0.00	29.932 
01:30	71.1	71.1	71.1	45	48.7	0	3	45	0.00	29.939 
01:35	71.1	71.1	71.1	45	48.7	0	2	45	0.00	29.939 
01:40	71.1	71.1	71.1	45	48.7	0	4	270	0.00	29.939 
01:45	70.9	70.9	70.9	45	48.5	0	3	270	0.00	29.943 
01:50	70.9	70.9	70.9	45	48.5	0	3	270	0.00	29.943 
01:55	70.9	70.9	70.9	45	48.5	0	4	248	0.00	29.943 
02:00	70.8	70.8	70.8	46	49.0	1	3	248	0.00	29.939 
02:05	70.6	70.6	70.6	46	48.8	0	2	248	0.00	29.939 
02:10	70.3	70.3	70.3	46	48.5	0	2	248	0.00	29.939 
02:15	69.9	69.9	69.9	47	48.7	0	1	248	0.00	29.939 
02:20	69.8	69.8	69.8	48	49.2	0	3	248	0.00	29.939 
02:25	69.4	69.4	69.4	48	48.8	0	1	248	0.00	29.939 
02:30	69.1	69.1	69.1	49	49.1	0	1	248	0.00	29.932 
02:35	68.9	68.9	68.9	50	49.5	0	3	248	0.00	29.932 
02:40	68.6	68.6	68.6	50	49.2	0	1	248	0.00	29.932 
02:45	68.4	68.4	68.4	51	49.6	0	1	248	0.00	29.937 
02:50	68.1	68.1	68.1	51	49.3	0	0	---	0.00	29.937 
02:55	67.8	67.8	67.8	52	49.5	0	1	248	0.00	29.937 
03:00	67.6	67.6	67.6	53	49.9	0	0	---	0.00	29.936 
03:05	67.3	67.3	67.3	53	49.6	0	1	248	0.00	29.936 
03:10	67.1	67.1	67.1	54	49.9	0	1	248	0.00	29.936 
03:15	66.8	66.8	66.8	54	49.6	0	0	---	0.00	29.933 
03:20	66.6	66.6	66.6	54	49.4	0	1	248	0.00	29.933 
03:25	66.4	66.4	66.4	55	49.7	0	0	---	0.00	29.933 
03:30	66.3	66.3	66.3	55	49.6	0	0	---	0.00	29.931 
03:35	66.1	66.1	66.1	56	49.9	0	0	---	0.00	29.931 
03:40	66.0	66.0	66.0	56	49.8	0	1	248	0.00	29.931 
03:45	66.0	66.0	66.0	56	49.8	0	0	---	0.00	29.927 
03:50	65.8	65.8	65.8	56	49.7	0	1	248	0.00	29.927 
03:55	65.8	65.8	65.8	56	49.7	0	1	248	0.00	29.927 
04:00	65.8	65.8	65.8	56	49.7	0	1	248	0.00	29.919 
04:05	66.0	66.0	66.0	56	49.8	0	1	248	0.00	29.919 
04:10	66.3	66.3	66.3	55	49.6	0	1	248	0.00	29.919 
04:15	66.8	66.8	66.8	54	49.6	0	3	270	0.00	29.917 
04:20	67.3	67.3	67.3	52	49.1	0	4	270	0.00	29.917 
04:25	67.8	67.8	67.8	52	49.5	0	2	270	0.00	29.917 
04:30	68.1	68.1	68.1	50	48.7	0	3	225	0.00	29.913 
04:35	68.6	68.6	68.6	49	48.7	1	5	248	0.00	29.913 
04:40	69.1	69.1	69.1	49	49.1	1	4	225	0.00	29.913 
04:45	69.4	69.4	69.4	48	48.8	1	5	292	0.00	29.910 
04:50	69.6	69.6	69.6	48	49.0	1	3	248	0.00	29.910 
04:55	69.9	69.9	69.9	47	48.7	1	6	270	0.00	29.910 
05:00	69.9	69.9	69.9	47	48.7	1	3	270	0.00	29.910 
05:05	70.1	70.1	70.1	46	48.3	2	7	315	0.00	29.910 
05:10	70.3	70.3	70.3	46	48.5	1	4	248	0.00	29.910 
05:15	70.1	70.1	70.1	46	48.3	1	3	248	0.00	29.908 
05:20	70.3	70.3	70.3	46	48.5	1	5	248	0.00	29.908 
05:25	70.1	70.1	70.1	47	48.9	1	6	270	0.00	29.908 
05:30	70.1	70.1	70.1	47	48.9	1	3	270	0.00	29.910 
05:35	69.9	69.9	69.9	47	48.7	1	4	270	0.00	29.910 
05:40	69.9	69.9	69.9	47	48.7	1	5	270	0.00	29.910 
05:45	69.8	69.8	69.8	47	48.6	1	3	270	0.00	29.905 
05:50	69.8	69.8	69.8	47	48.6	1	3	270	0.00	29.905 
05:55	69.8	69.8	69.8	47	48.6	1	3	248	0.00	29.905 
06:00	69.8	69.8	69.8	47	48.6	1	5	248	0.00	29.902 
06:05	69.8	69.8	69.8	47	48.6	1	6	248	0.00	29.902 
06:10	69.6	69.6	69.6	48	49.0	1	5	248	0.00	29.902 
06:15	69.6	69.6	69.6	48	49.0	1	4	248	0.00	29.903 
06:20	69.6	69.6	69.6	48	49.0	1	5	270	0.00	29.903 
06:25	69.6	69.6	69.6	48	49.0	1	5	270	0.00	29.903 
06:30	69.4	69.4	69.4	48	48.8	1	7	248	0.00	29.901 
06:35	69.4	69.4	69.4	47	48.3	0	2	22	0.00	29.901 
06:40	69.6	69.6	69.6	47	48.5	1	6	270	0.00	29.901 
06:45	69.6	69.6	69.6	47	48.5	1	5	270	0.00	29.902 
06:50	69.8	69.8	69.8	47	48.6	1	9	248	0.00	29.902 
06:55	69.9	69.9	69.9	47	48.7	1	9	292	0.00	29.902 
07:00	69.9	69.9	69.9	47	48.7	0	2	292	0.00	29.902 
07:05	69.9	69.9	69.9	46	48.2	1	5	248	0.00	29.902 
07:10	69.9	69.9	69.9	47	48.7	1	3	270	0.00	29.902 
07:15	70.1	70.1	70.1	47	48.9	1	6	248	0.00	29.903 
07:20	70.1	70.1	70.1	47	48.9	1	3	270	0.00	29.903 
07:25	70.1	70.1	70.1	47	48.9	1	5	270	0.00	29.903 
07:30	70.3	70.3	70.3	47	49.1	1	4	248	0.00	29.907 
07:35	70.6	70.6	70.6	47	49.4	1	7	248	0.00	29.907 
07:40	70.9	70.9	70.9	46	49.1	2	6	248	0.00	29.907 
07:45	71.3	71.3	71.3	46	49.4	1	4	248	0.00	29.906 
07:50	71.5	71.5	71.5	46	49.6	1	5	248	0.00	29.906 
07:55	71.5	71.5	71.5	46	49.6	0	2	248	0.00	29.906 
08:00	71.5	71.5	71.5	47	50.2	0	3	248	0.00	29.912 
08:05	71.5	71.5	71.5	47	50.2	0	2	248	0.00	29.912 
08:10	71.5	71.5	71.5	48	50.8	0	2	248	0.00	29.912 
08:15	71.6	71.6	71.6	48	50.9	1	4	270	0.00	29.915 
08:20	71.8	71.8	71.8	48	51.0	1	4	315	0.00	29.915 
08:25	72.1	72.1	72.1	49	51.9	1	6	248	0.00	29.915 
08:30	72.3	72.3	72.3	48	51.5	1	5	270	0.00	29.913 
08:35	72.5	72.5	72.5	48	51.7	1	3	270	0.00	29.913 
08:40	72.7	72.7	72.7	49	52.4	0	2	248	0.00	29.913 
08:45	73.0	73.0	73.0	49	52.7	1	4	270	0.00	29.907 
08:50	73.2	73.2	73.2	48	52.3	1	4	248	0.00	29.907 
08:55	73.7	73.7	73.7	49	53.3	2	5	270	0.00	29.907 
09:00	74.0	74.0	74.0	48	53.0	2	4	270	0.00	29.908 
09:05	74.4	74.4	74.4	48	53.4	1	5	270	0.00	29.908 
09:10	74.7	74.7	74.7	48	53.7	2	7	270	0.00	29.908 
09:15	74.9	74.9	74.9	47	53.3	2	11	270	0.00	29.905 
09:20	75.3	75.3	77.7	48	54.2	2	5	270	0.00	29.905 
09:25	75.4	75.4	77.8	48	54.3	2	7	270	0.00	29.905 
09:30	75.8	75.8	77.9	47	54.1	2	10	248	0.00	29.902 
09:35	76.0	76.0	78.0	47	54.3	3	10	270	0.00	29.902 
09:40	76.1	76.1	78.1	48	55.0	2	7	225	0.00	29.902 
09:45	76.3	76.3	78.2	47	54.6	2	7	270	0.00	29.902 
09:50	76.3	76.3	78.2	48	55.1	2	6	248	0.00	29.902 
09:55	76.5	76.5	78.3	47	54.7	3	12	270	0.00	29.902 
10:00	76.7	76.7	78.4	48	55.5	3	7	248	0.00	29.906 
10:05	76.8	76.8	78.4	48	55.6	3	7	248	0.00	29.906 
10:10	77.0	77.0	78.5	47	55.2	2	6	248	0.00	29.906 
10:15	77.2	77.2	78.6	47	55.4	3	7	248	0.00	29.911 
10:20	77.2	77.2	78.7	49	56.5	3	7	248	0.00	29.911 
10:25	77.2	77.2	78.7	50	57.1	2	6	270	0.00	29.911 
10:30	77.6	77.6	78.9	48	56.3	2	7	248	0.00	29.913 
10:35	77.7	77.7	79.0	49	57.0	3	6	270	0.00	29.913 
10:40	77.9	77.9	79.1	48	56.6	2	6	270	0.00	29.913 
10:45	77.9	77.9	79.1	48	56.6	3	5	270	0.00	29.912 
10:50	77.9	77.9	79.1	49	57.2	3	9	270	0.00	29.912 
10:55	77.9	77.9	79.2	50	57.7	3	6	248	0.00	29.912 
11:00	78.5	78.5	79.5	49	57.7	2	4	248	0.00	29.914 
11:05	78.8	78.8	79.7	49	58.0	2	6	270	0.00	29.914 
11:10	78.6	78.6	79.6	49	57.8	3	6	248	0.00	29.914 
11:15	78.3	78.3	79.4	49	57.5	3	6	248	0.00	29.914 
11:20	78.1	78.1	79.4	51	58.5	2	10	270	0.00	29.914 
11:25	78.1	78.1	79.3	50	57.9	3	9	270	0.00	29.914 
11:30	77.9	77.9	79.2	51	58.3	3	7	270	0.00	29.924 
11:35	77.6	77.6	79.0	52	58.6	3	7	270	0.00	29.924 
11:40	77.2	77.2	78.8	52	58.2	3	7	270	0.00	29.924 
11:45	77.4	77.4	78.9	53	58.9	2	5	270	0.00	29.923 
11:50	77.2	77.2	78.8	53	58.7	3	6	270	0.00	29.923 
11:55	77.2	77.2	78.8	54	59.2	2	6	248	0.00	29.923 
12:00	77.2	77.2	78.8	54	59.2	3	6	248	0.00	29.920 
12:05	77.9	77.9	79.3	53	59.4	2	4	270	0.00	29.920 
12:10	78.6	78.6	79.8	52	59.5	3	6	270	0.00	29.920 
12:15	79.2	79.2	80.4	53	60.6	2	5	270	0.00	29.924 
12:20	79.8	79.8	80.7	51	60.0	2	6	270	0.00	29.924 
12:25	79.9	79.9	80.8	51	60.1	2	5	270	0.00	29.924 
12:30	79.9	79.9	80.9	52	60.7	3	6	270	0.00	29.923 
12:35	79.8	79.8	80.8	52	60.6	3	9	248	0.00	29.923 
12:40	79.4	79.4	80.5	52	60.2	2	6	248	0.00	29.923 
12:45	79.0	79.0	80.2	53	60.4	3	7	248	0.00	29.919 
12:50	78.8	78.8	80.0	53	60.2	2	5	270	0.00	29.919 
12:55	79.2	79.2	80.5	55	61.6	1	5	248	0.00	29.919 
13:00	79.4	79.4	80.6	54	61.3	1	6	248	0.00	29.923 
13:05	79.4	79.4	80.6	54	61.3	2	6	270	0.00	29.923 
13:10	79.6	79.6	80.7	53	60.9	2	4	225	0.00	29.923 
13:15	79.8	79.8	81.0	54	61.7	2	6	270	0.00	29.918 
13:20	79.8	79.8	80.9	53	61.1	3	9	248	0.00	29.918 
13:25	79.6	79.6	80.7	53	60.9	3	6	270	0.00	29.918 
13:30	79.8	79.8	80.9	53	61.1	2	5	248	0.00	29.915 
13:35	79.9	79.9	80.8	51	60.1	2	6	270	0.00	29.915 
13:40	79.9	79.9	80.7	50	59.6	3	7	248	0.00	29.915 
13:45	79.9	79.9	80.6	49	59.0	4	7	248	0.00	29.912 
13:50	80.1	80.1	80.8	49	59.2	3	6	270	0.00	29.912 
13:55	79.9	79.9	80.6	49	59.0	5	9	270	0.00	29.912 
14:00	80.5	80.5	81.0	48	59.0	3	9	270	0.00	29.903 
14:05	81.1	81.1	81.6	48	59.5	3	7	248	0.00	29.903 
14:10	81.4	81.4	81.9	48	59.8	3	7	270	0.00	29.903 
14:15	81.8	81.8	82.3	48	60.2	3	10	270	0.00	29.899 
14:20	81.8	81.8	82.0	46	59.0	3	6	270	0.00	29.899 
14:25	82.0	82.0	82.1	45	58.5	3	6	248	0.00	29.899 
14:30	82.2	82.2	81.9	42	56.8	4	10	248	0.00	29.895 
14:35	82.4	82.4	82.0	42	57.0	3	7	270	0.00	29.895 
14:40	82.6	82.6	82.1	41	56.5	3	10	270	0.00	29.895 
14:45	82.4	82.4	81.7	39	54.9	6	14	270	0.00	29.889 
14:50	82.6	82.6	81.8	39	55.1	3	6	270	0.00	29.889 
14:55	83.0	83.0	82.1	38	54.7	3	9	270	0.00	29.889 
15:00	83.0	83.0	82.0	37	54.0	4	8	270	0.00	29.887 
15:05	82.8	82.8	81.7	36	53.1	5	11	270	0.00	29.887 
15:10	83.0	83.0	81.6	34	51.7	4	12	270	0.00	29.887 
15:15	83.4	83.4	81.7	32	50.4	4	9	270	0.00	29.888 
15:20	83.6	83.6	81.6	29	48.0	4	10	248	0.00	29.888 
15:25	83.6	83.6	81.5	28	47.0	3	10	270	0.00	29.888 
15:30	83.4	83.4	81.2	26	44.9	5	10	270	0.00	29.883 
15:35	83.6	83.6	81.3	25	44.0	4	11	270	0.00	29.883 
15:40	83.8	83.8	81.5	26	45.2	4	9	270	0.00	29.883 
15:45	83.6	83.6	81.3	25	44.0	4	9	270	0.00	29.882 
15:50	83.8	83.8	81.4	25	44.2	3	9	270	0.00	29.882 
15:55	83.8	83.8	81.4	24	43.1	4	11	270	0.00	29.882 
16:00	84.0	84.0	81.6	25	44.4	4	9	270	0.00	29.876 
16:05	83.8	83.8	81.4	25	44.2	3	7	270	0.00	29.876 
16:10	83.6	83.6	81.3	25	44.0	4	9	270	0.00	29.876 
16:15	83.8	83.8	81.4	25	44.2	3	8	270	0.00	29.869 
16:20	83.8	83.8	81.4	24	43.1	5	12	270	0.00	29.869 
16:25	83.6	83.6	81.4	27	46.1	5	13	270	0.00	29.869 
16:30	83.2	83.2	81.0	25	43.7	4	10	270	0.00	29.869 
16:35	83.2	83.2	81.1	27	45.7	4	11	270	0.00	29.869 
16:40	83.4	83.4	81.2	26	44.9	4	9	270	0.00	29.869 
16:45	83.4	83.4	81.3	27	45.9	3	10	248	0.00	29.868 
16:50	83.2	83.2	81.0	26	44.7	3	9	248	0.00	29.868 
16:55	83.0	83.0	80.8	25	43.5	4	9	270	0.00	29.868 
17:00	83.0	83.0	80.7	23	41.4	3	9	270	0.00	29.871 
17:05	82.8	82.8	80.6	24	42.3	4	10	270	0.00	29.871 
17:10	82.8	82.8	80.6	24	42.3	4	10	270	0.00	29.871 
17:15	82.6	82.6	80.5	24	42.1	4	13	270	0.00	29.869 
17:20	82.8	82.8	80.7	25	43.4	4	10	248	0.00	29.869 
17:25	83.0	83.0	80.8	25	43.5	2	6	270	0.00	29.869 
17:30	82.8	82.8	80.8	26	44.4	3	9	270	0.00	29.870 
17:35	82.6	82.6	80.5	25	43.2	3	7	248	0.00	29.870 
17:40	82.6	82.6	80.5	25	43.2	3	7	248	0.00	29.870 
17:45	82.4	82.4	80.3	24	42.0	4	10	270	0.00	29.871 
17:50	82.2	82.2	80.2	24	41.8	3	10	248	0.00	29.871 
17:55	81.8	81.8	79.9	23	40.4	4	10	270	0.00	29.871 
18:00	81.8	81.8	79.9	24	41.5	3	7	270	0.00	29.873 
18:05	81.8	81.8	79.9	24	41.5	4	8	270	0.00	29.873 
18:10	81.6	81.6	79.6	21	37.9	4	7	270	0.00	29.873 
18:15	81.2	81.2	79.5	24	41.0	5	14	270	0.00	29.879 
18:20	81.1	81.1	79.5	24	40.9	5	10	270	0.00	29.879 
18:25	81.1	81.1	79.4	23	39.8	4	7	270	0.00	29.879 
18:30	80.9	80.9	79.3	23	39.6	4	8	270	0.00	29.880 
18:35	80.9	80.9	79.3	23	39.6	3	7	270	0.00	29.880 
18:40	80.7	80.7	79.1	22	38.3	3	7	248	0.00	29.880 
18:45	80.5	80.5	79.0	22	38.1	4	7	270	0.00	29.882 
18:50	80.3	80.3	78.9	23	39.1	5	10	270	0.00	29.882 
18:55	79.9	79.9	78.7	23	38.8	3	7	270	0.00	29.882 
19:00	79.8	79.8	78.6	22	37.6	3	7	270	0.00	29.883 
19:05	79.6	79.6	78.5	23	38.5	3	7	270	0.00	29.883 
19:10	79.4	79.4	78.5	24	39.4	3	7	270	0.00	29.883 
19:15	79.0	79.0	78.2	24	39.1	4	11	270	0.00	29.882 
19:20	78.8	78.8	78.1	24	38.9	4	9	270	0.00	29.882 
19:25	78.6	78.6	78.0	24	38.8	2	7	270	0.00	29.882 
19:30	78.5	78.5	78.0	25	39.7	3	8	270	0.00	29.884 
19:35	78.1	78.1	77.8	25	39.4	1	3	270	0.00	29.884 
19:40	77.7	77.7	77.6	25	39.1	2	6	270	0.00	29.884 
19:45	77.6	77.6	77.7	26	40.0	2	7	270	0.00	29.888 
19:50	77.4	77.4	77.6	26	39.8	1	4	270	0.00	29.888 
19:55	77.2	77.2	77.6	27	40.6	2	4	270	0.00	29.888 
20:00	76.8	76.8	77.4	27	40.3	2	5	270	0.00	29.894 
20:05	76.5	76.5	77.3	28	41.0	2	6	248	0.00	29.894 
20:10	76.5	76.5	77.3	28	41.0	2	5	270	0.00	29.894 
20:15	76.3	76.3	77.2	28	40.8	2	6	270	0.00	29.893 
20:20	76.0	76.0	77.1	27	39.6	2	7	248	0.00	29.893 
20:25	75.8	75.8	77.1	28	40.4	1	3	292	0.00	29.893 
20:30	75.4	75.4	76.9	28	40.0	3	5	270	0.00	29.903 
20:35	75.4	75.4	77.0	29	40.9	1	4	248	0.00	29.903 
20:40	75.3	75.3	77.0	29	40.8	1	5	248	0.00	29.903 
20:45	75.1	75.1	77.0	30	41.5	2	5	270	0.00	29.910 
20:50	74.7	74.7	74.7	30	41.2	1	3	270	0.00	29.910 
20:55	74.4	74.4	74.4	31	41.8	1	4	270	0.00	29.910 
21:00	74.2	74.2	74.2	31	41.6	2	3	270	0.00	29.919 
21:05	74.0	74.0	74.0	31	41.4	2	4	270	0.00	29.919 
21:10	73.7	73.7	73.7	32	42.0	2	5	270	0.00	29.919 
21:15	73.7	73.7	73.7	32	42.0	2	6	270	0.00	29.922 
21:20	73.5	73.5	73.5	32	41.8	2	4	270	0.00	29.922 
21:25	73.2	73.2	73.2	32	41.6	2	4	270	0.00	29.922 
21:30	73.0	73.0	73.0	33	42.2	2	6	270	0.00	29.932 
21:35	72.8	72.8	72.8	33	42.0	2	6	270	0.00	29.932 
21:40	72.7	72.7	72.7	33	41.9	2	5	270	0.00	29.932 
21:45	72.5	72.5	72.5	34	42.5	2	4	270	0.00	29.935 
21:50	72.3	72.3	72.3	35	43.1	2	5	292	0.00	29.935 
21:55	72.1	72.1	72.1	35	42.9	2	5	270	0.00	29.935 
22:00	72.0	72.0	72.0	35	42.8	1	4	270	0.00	29.949 
22:05	71.6	71.6	71.6	36	43.2	2	4	270	0.00	29.949 
22:10	71.5	71.5	71.5	37	43.8	2	7	270	0.00	29.949 
22:15	71.5	71.5	71.5	39	45.2	3	9	270	0.00	29.949 
22:20	71.3	71.3	71.3	40	45.7	3	7	270	0.00	29.949 
22:25	71.1	71.1	71.1	41	46.2	2	5	270	0.00	29.949 
22:30	71.1	71.1	71.1	41	46.2	3	6	270	0.00	29.955 
22:35	70.8	70.8	70.8	41	45.9	2	5	292	0.00	29.955 
22:40	70.6	70.6	70.6	42	46.4	2	6	292	0.00	29.955 
22:45	70.4	70.4	70.4	43	46.8	3	7	270	0.00	29.955 
22:50	70.3	70.3	70.3	43	46.7	4	6	270	0.00	29.955 
22:55	70.3	70.3	70.3	44	47.3	4	9	270	0.00	29.955 
23:00	70.1	70.1	70.1	44	47.2	4	7	270	0.00	29.955 
23:05	69.9	69.9	69.9	44	47.0	3	6	270	0.00	29.955 
23:10	69.6	69.6	69.6	45	47.3	3	5	270	0.00	29.955 
23:15	69.4	69.4	69.4	45	47.1	2	6	270	0.00	29.958 
23:20	69.3	69.3	69.3	45	47.0	2	6	270	0.00	29.958 
23:25	69.1	69.1	69.1	46	47.4	2	5	270	0.00	29.958 
23:30	68.9	68.9	68.9	46	47.3	3	6	270	0.00	29.962 
23:35	68.8	68.8	68.8	46	47.2	3	9	270	0.00	29.962 
23:40	68.6	68.6	68.6	46	47.0	3	6	270	0.00	29.962 
23:45	68.3	68.3	68.3	47	47.3	1	4	270	0.00	29.966 
23:50	68.1	68.1	68.1	47	47.1	1	5	270	0.00	29.966 
23:55	67.9	67.9	67.9	47	46.9	2	5	270	0.00	29.966 

CoCoRaHS
IN-AL-39
A2 Web Hosting
Creative Commons License
GoDaddy
search engine by freefind advanced

loaded 2018-11-15 14:38:52 • last modified 2010-11-18 10:43:29
Privacy PolicyDisclaimer
• wx.awcolley.com is powered by PmWiki v.2002016 •
• all content (unless otherwise noted) © 2018 A W Colley